Time;durP1;ratioP1;P1;durP2;ratioP2;P2;SDS_P1;SDS_P2;PMS_P1;PMS_P2;Temp;Humidity;BMP_temperature;BMP_pressure;BME280_temperature;BME280_humidity;BME280_pressure;Samples;Min_cycle;Max_cycle;Signal;HPM_P1;HPM_P2
2023/04/14 00:02:04;;;;;;;5.60;2.00;;;12.10;95.00;;;;;;4982125;28;20186;-87
2023/04/14 00:04:32;;;;;;;4.43;2.23;;;12.10;95.00;;;;;;4981660;28;20538;-87
2023/04/14 00:06:58;;;;;;;4.23;1.93;;;12.10;94.90;;;;;;5014488;28;20592;-88
2023/04/14 00:09:25;;;;;;;5.03;1.87;;;12.10;95.00;;;;;;4998008;28;20474;-87
2023/04/14 00:11:51;;;;;;;4.73;2.07;;;12.10;95.00;;;;;;4981888;28;20428;-88
2023/04/14 00:14:19;;;;;;;4.63;2.00;;;12.00;94.90;;;;;;4991476;28;20433;-87
2023/04/14 00:16:47;;;;;;;4.97;2.27;;;12.00;94.90;;;;;;5021116;28;20772;-87
2023/04/14 00:19:13;;;;;;;4.40;2.03;;;12.00;94.90;;;;;;5021904;28;20434;-87
2023/04/14 00:21:40;;;;;;;3.33;1.90;;;12.00;94.90;;;;;;5054114;28;20449;-88
2023/04/14 00:24:05;;;;;;;3.30;2.07;;;12.00;94.80;;;;;;5020958;28;20771;-87
2023/04/14 00:26:34;;;;;;;4.13;1.60;;;12.00;94.80;;;;;;5053394;28;20514;-88
2023/04/14 00:29:00;;;;;;;3.97;1.77;;;12.00;94.80;;;;;;5020910;28;20849;-88
2023/04/14 00:31:26;;;;;;;2.50;1.50;;;12.00;94.80;;;;;;5021291;28;20456;-88
2023/04/14 00:33:52;;;;;;;3.47;1.70;;;12.00;94.80;;;;;;5021440;28;20529;-88
2023/04/14 00:36:20;;;;;;;2.70;1.90;;;11.90;94.80;;;;;;5053884;28;20443;-87
2023/04/14 00:38:46;;;;;;;2.80;1.90;;;11.90;94.70;;;;;;5053862;28;20478;-87
2023/04/14 00:41:12;;;;;;;5.87;2.13;;;11.90;94.70;;;;;;5053461;28;20452;-87
2023/04/14 00:43:37;;;;;;;3.73;1.60;;;11.90;94.70;;;;;;5053768;28;20792;-88
2023/04/14 00:46:06;;;;;;;9.47;2.03;;;11.90;94.60;;;;;;5037184;28;20421;-88
2023/04/14 00:48:31;;;;;;;5.07;1.70;;;11.90;94.60;;;;;;5037634;28;20770;-88
2023/04/14 00:51:00;;;;;;;2.70;1.70;;;11.90;94.60;;;;;;5037129;28;20414;-87
2023/04/14 00:53:27;;;;;;;5.57;1.77;;;11.90;94.50;;;;;;5020603;28;20465;-88
2023/04/14 00:55:53;;;;;;;4.13;2.10;;;11.90;94.50;;;;;;5037121;28;20526;-88
2023/04/14 00:58:19;;;;;;;4.77;2.23;;;11.90;94.50;;;;;;5037296;28;20446;-87
2023/04/14 01:00:51;;;;;;;4.30;1.80;;;11.80;94.80;;;;;;5053795;28;20415;-88
2023/04/14 01:03:23;;;;;;;2.43;1.60;;;11.80;94.40;;;;;;5020294;28;20467;-88
2023/04/14 01:05:50;;;;;;;3.60;1.93;;;11.80;94.40;;;;;;5054416;28;20395;-87
2023/04/14 01:08:20;;;;;;;5.30;2.70;;;11.80;94.40;;;;;;5021121;28;20465;-87
2023/04/14 01:11:05;;;;;;;2.80;2.10;;;11.80;94.40;;;;;;5020576;28;20451;-88
2023/04/14 01:13:48;;;;;;;4.73;1.70;;;11.70;94.40;;;;;;5020689;28;20516;-87
2023/04/14 01:16:27;;;;;;;3.70;2.10;;;11.80;94.40;;;;;;5020731;28;20546;-88
2023/04/14 01:19:16;;;;;;;4.07;2.10;;;11.70;94.70;;;;;;5036842;28;20419;-87
2023/04/14 01:21:48;;;;;;;4.00;2.40;;;11.70;94.40;;;;;;5020196;28;20456;-87
2023/04/14 01:24:15;;;;;;;4.83;1.70;;;11.70;94.40;;;;;;5007237;28;20458;-87
2023/04/14 01:26:43;;;;;;;4.93;1.80;;;11.70;94.40;;;;;;5004560;28;20438;-87
2023/04/14 01:29:20;;;;;;;3.80;1.77;;;11.70;94.40;;;;;;5004411;28;20435;-88
2023/04/14 01:32:01;;;;;;;4.43;2.07;;;11.70;94.30;;;;;;5004534;28;20413;-88
2023/04/14 01:34:33;;;;;;;4.37;1.80;;;11.70;94.30;;;;;;5004678;28;20448;-88
2023/04/14 01:37:11;;;;;;;2.50;1.60;;;11.70;94.30;;;;;;5004329;28;20490;-86
2023/04/14 01:39:52;;;;;;;5.40;1.80;;;11.60;94.20;;;;;;5004172;28;20499;-87
2023/04/14 01:42:25;;;;;;;3.80;1.90;;;11.60;94.20;;;;;;5018425;28;20507;-87
2023/04/14 01:45:00;;;;;;;2.67;1.70;;;11.60;94.20;;;;;;5040022;28;20453;-87
2023/04/14 01:47:28;;;;;;;3.30;2.20;;;11.60;94.20;;;;;;5023224;28;20761;-88
2023/04/14 01:49:55;;;;;;;3.23;1.90;;;11.50;94.20;;;;;;5022524;28;20761;-87
2023/04/14 01:52:29;;;;;;;8.03;2.20;;;11.50;94.20;;;;;;5049783;28;20780;-88
2023/04/14 01:54:56;;;;;;;3.50;2.07;;;11.60;94.20;;;;;;5002952;28;20420;-87
2023/04/14 01:57:25;;;;;;;3.20;1.60;;;11.50;94.20;;;;;;5002718;28;20449;-87
2023/04/14 01:59:55;;;;;;;3.23;1.77;;;11.50;94.10;;;;;;5002745;28;20438;-87
2023/04/14 02:02:25;;;;;;;3.40;2.00;;;11.50;94.10;;;;;;5018824;28;20510;-87
2023/04/14 02:04:56;;;;;;;3.20;1.70;;;11.50;94.10;;;;;;5002736;28;20496;-87
2023/04/14 02:07:26;;;;;;;5.00;1.80;;;11.50;94.10;;;;;;4986701;28;20490;-87
2023/04/14 02:09:59;;;;;;;2.27;1.60;;;11.40;94.00;;;;;;5002894;28;20796;-88
2023/04/14 02:12:29;;;;;;;7.37;2.00;;;11.40;94.00;;;;;;4991223;28;20517;-87
2023/04/14 02:15:00;;;;;;;3.90;1.80;;;11.40;94.00;;;;;;4999061;28;20536;-87
2023/04/14 02:17:30;;;;;;;2.70;1.90;;;11.40;94.00;;;;;;5015487;28;20420;-87
2023/04/14 02:19:59;;;;;;;3.10;2.10;;;11.40;94.00;;;;;;4999160;28;20440;-87
2023/04/14 02:22:30;;;;;;;3.00;1.73;;;11.40;94.00;;;;;;5016008;28;20726;-87
2023/04/14 02:25:00;;;;;;;4.67;2.17;;;11.40;94.00;;;;;;5018930;28;20476;-88
2023/04/14 02:27:36;;;;;;;2.27;1.60;;;11.30;94.00;;;;;;5002928;28;20753;-88
2023/04/14 02:30:12;;;;;;;3.07;2.13;;;11.40;94.10;;;;;;5002751;28;20454;-88
2023/04/14 02:32:47;;;;;;;6.90;2.10;;;11.40;94.10;;;;;;4994990;28;20466;-87
2023/04/14 02:35:20;;;;;;;3.40;2.03;;;11.40;94.10;;;;;;5013915;28;20813;-87
2023/04/14 02:37:54;;;;;;;5.20;2.13;;;11.30;94.00;;;;;;4982823;28;20767;-87
2023/04/14 02:40:25;;;;;;;2.33;1.80;;;11.30;94.00;;;;;;5015327;28;20436;-86
2023/04/14 02:43:27;;;;;;;7.83;2.00;;;11.30;94.10;;;;;;5002109;28;20733;-88
2023/04/14 02:45:55;;;;;;;2.33;1.97;;;11.30;94.40;;;;;;5015574;28;20420;-87
2023/04/14 02:48:24;;;;;;;2.90;2.22;;;11.30;94.10;;;;;;4962740;28;1164483;-86
2023/04/14 02:50:52;;;;;;;4.10;1.57;;;11.20;94.00;;;;;;5002790;28;20290;-88
2023/04/14 02:53:23;;;;;;;2.40;1.90;;;11.20;94.00;;;;;;5002935;28;20426;-88
2023/04/14 02:55:57;;;;;;;2.43;1.87;;;11.20;94.00;;;;;;5019107;28;20521;-87
2023/04/14 02:58:28;;;;;;;4.57;1.93;;;11.20;94.00;;;;;;5021716;28;20436;-86
2023/04/14 03:00:57;;;;;;;3.83;1.93;;;11.20;94.00;;;;;;5038649;28;20766;-87
2023/04/14 03:03:25;;;;;;;3.70;1.90;;;11.20;94.00;;;;;;5022458;28;20491;-87
2023/04/14 03:05:55;;;;;;;4.90;1.90;;;11.20;94.00;;;;;;5019122;28;20794;-87
2023/04/14 03:08:22;;;;;;;6.50;2.10;;;11.10;94.00;;;;;;5022241;28;20462;-87
2023/04/14 03:10:53;;;;;;;2.67;1.77;;;11.10;94.00;;;;;;5027298;28;20459;-87
2023/04/14 03:13:25;;;;;;;4.03;2.97;;;11.10;94.00;;;;;;5019016;28;20460;-87
2023/04/14 03:15:55;;;;;;;6.10;1.80;;;11.10;94.00;;;;;;4986099;28;20882;-87
2023/04/14 03:18:22;;;;;;;4.07;1.80;;;11.10;94.00;;;;;;5021793;28;20437;-87
2023/04/14 03:20:52;;;;;;;4.13;2.60;;;11.10;94.00;;;;;;5022464;28;20419;-87
2023/04/14 03:23:19;;;;;;;2.30;1.80;;;11.10;94.00;;;;;;5038345;28;20799;-87
2023/04/14 03:25:54;;;;;;;4.20;2.43;;;11.10;94.10;;;;;;5007194;28;20451;-87
2023/04/14 03:28:29;;;;;;;3.50;2.07;;;11.00;94.00;;;;;;5022041;28;20431;-87
2023/04/14 03:31:00;;;;;;;4.20;2.10;;;11.10;94.10;;;;;;5005910;28;20425;-87
2023/04/14 03:33:31;;;;;;;4.30;2.03;;;11.00;94.00;;;;;;5006231;28;20425;-87
2023/04/14 03:36:00;;;;;;;3.50;1.73;;;11.00;94.00;;;;;;5037634;28;20570;-87
2023/04/14 03:38:30;;;;;;;2.00;1.80;;;11.00;94.00;;;;;;5021993;28;20890;-87
2023/04/14 03:41:00;;;;;;;3.50;2.20;;;11.00;94.00;;;;;;4982835;28;20428;-87
2023/04/14 03:43:32;;;;;;;3.80;1.47;;;11.00;94.00;;;;;;4998783;28;20480;-87
2023/04/14 03:46:06;;;;;;;3.77;2.23;;;11.00;94.00;;;;;;4982322;28;20437;-87
2023/04/14 03:48:34;;;;;;;4.93;2.10;;;11.00;94.10;;;;;;4982163;28;20437;-88
2023/04/14 03:51:08;;;;;;;2.60;2.30;;;10.90;94.00;;;;;;4998643;28;20423;-87
2023/04/14 03:53:40;;;;;;;8.50;2.43;;;10.90;94.10;;;;;;5012157;28;20420;-88
2023/04/14 03:59:27;;;;;;;3.37;2.30;;;10.90;94.20;;;;;;5017960;28;20460;-87
2023/04/14 04:01:57;;;;;;;3.73;1.83;;;10.90;94.20;;;;;;4985868;28;20436;-87
2023/04/14 04:04:24;;;;;;;2.40;1.90;;;10.90;94.20;;;;;;5001081;28;20484;-87
2023/04/14 04:06:51;;;;;;;3.10;2.13;;;10.80;94.20;;;;;;5001542;28;20448;-87
2023/04/14 04:09:20;;;;;;;4.40;1.90;;;10.80;94.20;;;;;;5001623;28;20428;-87
2023/04/14 04:11:48;;;;;;;6.40;2.30;;;10.80;94.20;;;;;;5022978;28;20745;-87
2023/04/14 04:14:21;;;;;;;3.10;2.40;;;10.80;94.30;;;;;;5021387;28;20525;-88
2023/04/14 04:16:54;;;;;;;3.30;2.27;;;10.80;94.30;;;;;;5010149;28;20428;-87
2023/04/14 04:19:22;;;;;;;5.97;2.07;;;10.80;94.30;;;;;;4985351;28;20452;-87
2023/04/14 04:21:55;;;;;;;3.07;2.10;;;10.80;94.30;;;;;;5001460;28;20439;-87
2023/04/14 04:24:23;;;;;;;4.30;2.07;;;10.80;94.30;;;;;;5033965;28;20473;-87
2023/04/14 04:26:55;;;;;;;2.67;1.93;;;10.70;94.20;;;;;;5002246;28;20418;-90
2023/04/14 04:29:25;;;;;;;4.30;2.50;;;10.70;94.60;;;;;;5001495;28;20518;-88
2023/04/14 04:31:52;;;;;;;3.17;2.30;;;10.70;94.30;;;;;;5017735;28;20439;-88
2023/04/14 04:34:23;;;;;;;4.87;2.57;;;10.70;94.30;;;;;;5017815;28;20490;-88
2023/04/14 04:36:51;;;;;;;2.57;2.37;;;10.70;94.30;;;;;;5018401;28;20511;-88
2023/04/14 04:39:17;;;;;;;4.80;2.30;;;10.70;94.30;;;;;;5001025;28;20416;-86
2023/04/14 04:41:44;;;;;;;2.93;1.93;;;10.70;94.30;;;;;;5025290;28;20457;-88
2023/04/14 04:44:10;;;;;;;4.70;2.50;;;10.70;94.30;;;;;;5014229;28;20470;-88
2023/04/14 04:46:54;;;;;;;2.80;2.40;;;10.60;94.30;;;;;;4982225;28;20445;-88
2023/04/14 04:49:29;;;;;;;4.20;2.17;;;10.60;94.30;;;;;;4982359;28;20428;-88
2023/04/14 04:52:01;;;;;;;4.37;2.57;;;10.60;94.30;;;;;;4985340;28;20439;-88
2023/04/14 04:54:30;;;;;;;4.60;2.53;;;10.60;94.30;;;;;;4985852;28;20784;-88
2023/04/14 04:56:58;;;;;;;4.60;3.07;;;10.60;94.30;;;;;;5034841;28;20450;-88
2023/04/14 04:59:26;;;;;;;4.70;2.87;;;10.60;94.30;;;;;;5020093;28;20286;-88
2023/04/14 05:01:57;;;;;;;8.50;3.10;;;10.50;94.30;;;;;;5021641;28;20756;-88
2023/04/14 05:04:23;;;;;;;4.80;3.13;;;10.50;94.30;;;;;;5021142;28;20542;-88
2023/04/14 05:06:51;;;;;;;3.60;3.03;;;10.50;94.30;;;;;;5013900;28;20517;-88
2023/04/14 05:09:17;;;;;;;6.40;2.90;;;10.50;94.30;;;;;;5005030;28;20763;-88
2023/04/14 05:11:43;;;;;;;5.63;2.90;;;10.50;94.40;;;;;;4999138;28;20457;-87
2023/04/14 05:14:09;;;;;;;7.73;2.87;;;10.50;94.40;;;;;;5017874;28;20432;-88
2023/04/14 05:16:35;;;;;;;6.43;3.60;;;10.50;94.40;;;;;;5001558;28;20196;-88
2023/04/14 05:19:03;;;;;;;4.27;2.73;;;10.50;94.40;;;;;;5017771;28;20173;-87
2023/04/14 05:21:29;;;;;;;9.17;3.23;;;10.50;94.40;;;;;;5017550;28;20463;-87
2023/04/14 05:23:57;;;;;;;5.20;3.27;;;10.50;94.50;;;;;;5001465;28;20814;-86
2023/04/14 05:26:23;;;;;;;3.23;2.67;;;10.50;94.50;;;;;;5031421;28;20442;-87
2023/04/14 05:28:53;;;;;;;4.30;2.90;;;10.40;94.50;;;;;;5004722;28;20455;-87
2023/04/14 05:31:20;;;;;;;7.90;3.70;;;10.40;94.50;;;;;;4990587;28;20439;-89
2023/04/14 05:33:45;;;;;;;6.00;3.63;;;10.40;94.50;;;;;;5019541;28;20435;-88
2023/04/14 05:36:15;;;;;;;4.80;3.40;;;10.40;94.60;;;;;;5020880;28;20439;-89
2023/04/14 05:38:41;;;;;;;4.93;3.53;;;10.40;94.60;;;;;;5021070;28;20766;-88
2023/04/14 05:41:10;;;;;;;6.83;3.30;;;10.40;94.70;;;;;;5004757;28;20451;-87
2023/04/14 05:43:36;;;;;;;6.23;3.53;;;10.40;94.70;;;;;;4996682;28;20469;-87
2023/04/14 05:46:02;;;;;;;10.63;4.37;;;10.40;94.70;;;;;;4967119;28;20435;-87
2023/04/14 05:48:29;;;;;;;5.43;3.50;;;10.40;94.80;;;;;;4979845;28;20469;-86
2023/04/14 05:50:56;;;;;;;5.57;3.37;;;10.30;94.80;;;;;;4977060;28;20833;-87
2023/04/14 05:53:22;;;;;;;5.40;3.57;;;10.30;94.80;;;;;;4962359;28;20475;-87
2023/04/14 05:55:50;;;;;;;4.43;3.03;;;10.30;94.80;;;;;;4963721;28;20458;-88
2023/04/14 05:58:28;;;;;;;5.30;3.20;;;10.30;94.90;;;;;;4979236;28;20443;-93
2023/04/14 06:00:57;;;;;;;5.40;3.50;;;10.30;94.90;;;;;;4980508;28;20461;-89
2023/04/14 06:03:25;;;;;;;5.23;3.43;;;10.30;95.00;;;;;;5000102;28;20487;-89
2023/04/14 06:05:56;;;;;;;4.77;3.20;;;10.30;95.10;;;;;;5016212;28;20882;-87
2023/04/14 06:08:29;;;;;;;6.83;3.93;;;10.30;95.10;;;;;;5008024;28;20767;-87
2023/04/14 06:10:59;;;;;;;4.70;3.67;;;10.30;95.10;;;;;;4980296;28;20426;-88
2023/04/14 06:13:26;;;;;;;5.80;3.50;;;10.30;95.20;;;;;;4997513;28;20523;-88
2023/04/14 06:15:58;;;;;;;5.40;3.27;;;10.30;95.30;;;;;;5020246;28;20422;-88
2023/04/14 06:18:24;;;;;;;6.37;4.63;;;10.30;95.30;;;;;;5003560;28;20908;-87
2023/04/14 06:20:50;;;;;;;6.90;3.30;;;10.30;95.40;;;;;;5003180;28;20455;-88
2023/04/14 06:23:15;;;;;;;5.77;3.10;;;10.30;95.40;;;;;;4991429;28;20432;-88
2023/04/14 06:25:41;;;;;;;4.80;3.10;;;10.30;95.50;;;;;;5000298;28;20427;-88
2023/04/14 06:28:10;;;;;;;3.53;3.20;;;10.30;95.50;;;;;;5000235;28;21076;-88
2023/04/14 06:30:36;;;;;;;5.37;3.00;;;10.30;95.60;;;;;;5000190;28;20430;-88
2023/04/14 06:33:07;;;;;;;5.27;3.63;;;10.30;95.60;;;;;;5017196;28;20423;-88
2023/04/14 06:35:42;;;;;;;4.70;2.97;;;10.30;95.70;;;;;;4999794;28;20221;-87
2023/04/14 06:38:46;;;;;;;4.53;2.83;;;10.30;95.70;;;;;;5013819;28;20425;-90
2023/04/14 06:41:15;;;;;;;5.10;2.70;;;10.30;95.80;;;;;;5008556;28;20479;-90
2023/04/14 06:43:43;;;;;;;3.70;2.83;;;10.30;95.80;;;;;;5036500;28;20484;-90
2023/04/14 06:46:09;;;;;;;5.20;2.50;;;10.30;95.90;;;;;;5004142;28;20427;-90
2023/04/14 06:48:35;;;;;;;3.20;2.67;;;10.30;95.90;;;;;;5003720;28;20443;-90
2023/04/14 06:51:02;;;;;;;5.37;2.77;;;10.30;96.00;;;;;;5020321;28;20811;-89
2023/04/14 06:53:36;;;;;;;3.77;3.03;;;10.30;96.00;;;;;;5003844;28;20450;-90
2023/04/14 06:56:02;;;;;;;4.27;2.50;;;10.30;96.00;;;;;;5003631;28;20770;-90
2023/04/14 06:58:39;;;;;;;4.10;2.57;;;10.30;96.00;;;;;;5017706;28;20459;-90
2023/04/14 07:01:05;;;;;;;3.87;3.00;;;10.30;96.10;;;;;;5039288;28;20434;-91
2023/04/14 07:03:31;;;;;;;5.27;2.63;;;10.40;96.10;;;;;;5013033;28;20463;-90
2023/04/14 07:06:17;;;;;;;6.30;2.50;;;10.40;96.10;;;;;;5003637;28;20527;-90
2023/04/14 07:08:44;;;;;;;4.50;3.00;;;10.40;96.10;;;;;;5019325;28;20424;-90
2023/04/14 07:11:10;;;;;;;4.80;2.90;;;10.40;96.10;;;;;;5023257;28;20452;-89
2023/04/14 07:13:38;;;;;;;3.57;2.93;;;10.40;96.10;;;;;;5025286;28;20612;-91
2023/04/14 07:16:07;;;;;;;4.50;2.73;;;10.40;96.50;;;;;;5021680;28;20422;-92
2023/04/14 07:18:34;;;;;;;5.13;2.90;;;10.50;96.30;;;;;;5021783;28;20448;-90
2023/04/14 07:21:04;;;;;;;5.17;3.00;;;10.50;96.30;;;;;;5037721;28;20469;-92
2023/04/14 07:23:33;;;;;;;3.93;2.90;;;10.50;96.30;;;;;;5004243;28;20491;-90
2023/04/14 07:26:04;;;;;;;6.43;3.20;;;10.50;96.20;;;;;;5005043;28;20451;-90
2023/04/14 07:28:32;;;;;;;5.03;2.57;;;10.50;96.20;;;;;;5019386;28;20421;-90
2023/04/14 07:30:59;;;;;;;6.23;2.70;;;10.60;96.40;;;;;;5019170;28;20494;-91
2023/04/14 07:33:29;;;;;;;4.03;2.50;;;10.60;96.40;;;;;;5017659;28;20448;-88
2023/04/14 07:35:55;;;;;;;6.70;2.77;;;10.50;96.30;;;;;;5017399;28;20425;-89
2023/04/14 07:38:21;;;;;;;6.70;3.00;;;10.60;96.30;;;;;;5017924;28;20487;-91
2023/04/14 07:40:47;;;;;;;5.73;2.90;;;10.60;96.40;;;;;;5033958;28;20455;-86
2023/04/14 07:43:13;;;;;;;5.83;3.20;;;10.60;96.40;;;;;;5017121;28;20456;-86
2023/04/14 07:45:39;;;;;;;8.03;3.13;;;10.60;96.40;;;;;;5000969;28;20464;-85
2023/04/14 07:48:07;;;;;;;6.90;3.30;;;10.60;96.40;;;;;;5016853;28;20457;-86
2023/04/14 07:50:33;;;;;;;4.50;2.50;;;10.60;96.40;;;;;;5034060;28;20421;-85
2023/04/14 07:53:02;;;;;;;6.23;3.00;;;10.60;96.40;;;;;;5007445;28;20525;-86
2023/04/14 07:55:32;;;;;;;7.20;3.20;;;10.70;96.40;;;;;;5036791;28;20874;-89
2023/04/14 07:57:58;;;;;;;3.60;2.80;;;10.70;96.40;;;;;;5037082;28;20419;-84
2023/04/14 08:00:29;;;;;;;5.23;3.27;;;10.70;96.40;;;;;;5036362;28;20423;-84
2023/04/14 08:02:55;;;;;;;3.70;2.30;;;10.70;96.40;;;;;;5020163;28;20760;-85
2023/04/14 08:05:21;;;;;;;9.10;2.77;;;10.70;96.40;;;;;;5037122;28;20471;-83
2023/04/14 08:07:48;;;;;;;5.70;2.83;;;10.70;96.40;;;;;;5020852;28;20433;-85
2023/04/14 08:10:14;;;;;;;5.13;2.80;;;10.80;96.50;;;;;;5037341;28;20456;-84
2023/04/14 08:12:42;;;;;;;5.77;3.23;;;10.80;96.50;;;;;;5003927;28;20750;-86
2023/04/14 08:15:11;;;;;;;3.83;2.83;;;10.80;96.50;;;;;;5025184;28;20431;-84
2023/04/14 08:17:37;;;;;;;6.90;2.90;;;10.80;96.50;;;;;;5053864;28;20417;-85
2023/04/14 08:20:06;;;;;;;7.60;2.70;;;10.80;96.50;;;;;;5037154;28;20434;-86
2023/04/14 08:22:34;;;;;;;7.40;3.30;;;10.80;96.40;;;;;;5037110;28;20200;-86
2023/04/14 08:25:03;;;;;;;8.00;2.90;;;10.90;96.50;;;;;;5053588;28;20537;-85
2023/04/14 08:27:28;;;;;;;3.70;2.47;;;10.90;96.50;;;;;;5020642;28;20479;-85
2023/04/14 08:29:54;;;;;;;4.73;3.00;;;10.90;96.50;;;;;;5021849;28;20954;-86
2023/04/14 08:32:21;;;;;;;4.10;2.63;;;10.90;96.50;;;;;;5022526;28;20420;-87
2023/04/14 08:34:47;;;;;;;7.13;2.90;;;10.90;96.50;;;;;;5036011;28;20292;-87
2023/04/14 08:37:17;;;;;;;4.70;2.57;;;11.00;96.60;;;;;;5020832;28;20453;-86
2023/04/14 08:39:45;;;;;;;8.30;2.73;;;11.00;96.60;;;;;;5001846;28;20426;-86
2023/04/14 08:46:00;;;;;;;8.00;2.73;;;11.10;96.70;;;;;;4966667;28;20438;-87
2023/04/14 08:48:29;;;;;;;8.10;3.50;;;11.10;96.70;;;;;;4961199;28;20461;-87
2023/04/14 08:51:13;;;;;;;3.80;2.23;;;11.10;96.70;;;;;;4977585;28;20497;-87
2023/04/14 08:53:46;;;;;;;4.40;2.83;;;11.20;96.70;;;;;;4977325;28;20582;-88
2023/04/14 08:56:16;;;;;;;5.40;2.70;;;11.20;96.80;;;;;;4977366;28;20464;-85
2023/04/14 08:58:42;;;;;;;3.40;2.30;;;11.30;96.80;;;;;;4993387;28;20449;-84
2023/04/14 09:01:08;;;;;;;6.10;2.40;;;11.30;96.80;;;;;;4992841;28;20888;-86
2023/04/14 09:03:43;;;;;;;6.57;2.40;;;11.40;96.90;;;;;;4991489;28;20916;-86
2023/04/14 09:06:36;;;;;;;5.83;2.83;;;11.50;96.90;;;;;;4978757;28;20460;-86
2023/04/14 09:09:05;;;;;;;7.33;2.50;;;11.50;96.90;;;;;;4979174;28;20620;-91
2023/04/14 09:11:35;;;;;;;4.80;2.50;;;11.50;96.90;;;;;;4994320;28;20411;-92
2023/04/14 09:14:08;;;;;;;4.60;2.33;;;11.60;97.00;;;;;;4998185;28;20466;-80
2023/04/14 09:16:35;;;;;;;4.23;2.17;;;11.60;97.00;;;;;;5015304;28;20834;-81
2023/04/14 09:19:03;;;;;;;3.83;2.33;;;11.70;97.00;;;;;;5036993;28;20466;-81
2023/04/14 09:21:31;;;;;;;3.23;2.00;;;11.70;96.90;;;;;;5016899;28;20800;-80
2023/04/14 09:23:57;;;;;;;5.53;2.47;;;11.80;96.90;;;;;;5016410;28;20470;-81
2023/04/14 09:26:28;;;;;;;3.50;2.30;;;11.80;96.80;;;;;;5035161;28;20449;-81
2023/04/14 09:28:54;;;;;;;2.57;2.00;;;11.90;96.80;;;;;;5035280;28;20853;-81
2023/04/14 09:31:20;;;;;;;5.97;2.70;;;11.90;96.80;;;;;;5019301;28;20484;-81
2023/04/14 09:33:49;;;;;;;3.80;2.17;;;12.00;96.90;;;;;;5029454;28;20772;-80
2023/04/14 09:36:22;;;;;;;3.80;2.27;;;12.00;96.70;;;;;;5015658;28;20646;-81
2023/04/14 09:38:50;;;;;;;4.30;2.53;;;12.10;96.70;;;;;;4999790;28;20431;-80
2023/04/14 09:41:20;;;;;;;3.83;2.10;;;12.10;96.70;;;;;;5031882;28;20465;-81
2023/04/14 09:43:46;;;;;;;3.57;2.17;;;12.20;96.70;;;;;;5012403;28;20470;-83
2023/04/14 09:46:14;;;;;;;4.57;2.40;;;12.20;96.60;;;;;;5016820;28;20790;-83
2023/04/14 09:48:59;;;;;;;6.83;2.37;;;12.30;96.70;;;;;;5020880;28;20457;-82
2023/04/14 09:51:28;;;;;;;8.67;2.63;;;12.30;95.80;;;;;;5011914;28;20909;-85
2023/04/14 09:54:03;;;;;;;4.40;2.20;;;12.40;94.80;;;;;;5015957;28;20445;-82
2023/04/14 09:56:29;;;;;;;4.93;2.77;;;12.50;94.70;;;;;;5036804;28;20428;-83
2023/04/14 09:59:00;;;;;;;6.47;2.20;;;12.60;94.80;;;;;;5034778;28;20506;-83
2023/04/14 10:01:32;;;;;;;5.17;2.30;;;12.60;95.00;;;;;;5021156;28;20429;-83
2023/04/14 10:04:00;;;;;;;5.20;2.77;;;12.70;95.10;;;;;;5009335;28;20495;-83
2023/04/14 10:06:26;;;;;;;6.10;2.40;;;12.70;95.20;;;;;;5035666;28;20437;-83
2023/04/14 10:08:54;;;;;;;5.00;2.13;;;12.70;95.30;;;;;;5035863;28;20449;-84
2023/04/14 10:11:34;;;;;;;3.93;2.20;;;12.70;95.30;;;;;;5036816;28;20424;-82
2023/04/14 10:14:06;;;;;;;4.67;2.10;;;12.80;95.30;;;;;;5035111;28;20808;-85
2023/04/14 10:16:35;;;;;;;5.80;2.50;;;12.80;95.30;;;;;;5039923;28;20523;-84
2023/04/14 10:19:00;;;;;;;6.77;2.03;;;12.80;95.30;;;;;;5022615;28;20469;-82
2023/04/14 10:21:29;;;;;;;3.43;2.13;;;12.90;95.30;;;;;;5017406;28;20447;-82
2023/04/14 10:24:02;;;;;;;3.20;2.10;;;12.90;95.20;;;;;;5001944;28;20459;-82
2023/04/14 10:26:30;;;;;;;4.43;1.90;;;12.90;95.20;;;;;;5018508;28;21051;-82
2023/04/14 10:28:56;;;;;;;2.60;2.00;;;13.00;95.30;;;;;;5034754;28;20451;-82
2023/04/14 10:31:35;;;;;;;4.67;2.00;;;13.00;95.30;;;;;;5039270;28;20437;-81
2023/04/14 10:34:13;;;;;;;5.77;2.50;;;13.00;95.20;;;;;;5026187;28;20437;-84
2023/04/14 10:36:40;;;;;;;3.40;2.07;;;13.10;95.20;;;;;;5022881;28;20458;-84
2023/04/14 10:39:10;;;;;;;3.43;1.90;;;13.10;95.00;;;;;;5019242;28;20466;-82
2023/04/14 10:41:50;;;;;;;4.20;1.77;;;13.10;94.80;;;;;;5002917;28;20447;-83
2023/04/14 10:44:22;;;;;;;4.63;1.83;;;13.20;94.80;;;;;;5022309;28;20567;-82
2023/04/14 10:46:49;;;;;;;3.10;2.00;;;13.20;94.70;;;;;;5003224;28;20449;-81
2023/04/14 10:49:15;;;;;;;5.20;1.70;;;13.20;94.60;;;;;;5015114;28;20781;-82
2023/04/14 10:51:58;;;;;;;7.03;1.93;;;13.30;94.70;;;;;;5018713;28;20416;-82
2023/04/14 10:54:24;;;;;;;4.90;1.80;;;13.30;94.80;;;;;;4999802;28;20754;-82
2023/04/14 10:57:13;;;;;;;7.83;1.73;;;13.30;94.80;;;;;;5034855;28;20441;-81
2023/04/14 10:59:42;;;;;;;6.13;2.00;;;13.40;94.70;;;;;;5052768;28;20771;-81
2023/04/14 11:02:24;;;;;;;2.33;1.57;;;13.40;94.60;;;;;;5018554;28;20763;-81
2023/04/14 11:05:12;;;;;;;3.40;1.80;;;13.50;94.70;;;;;;5001612;28;20990;-81
2023/04/14 11:07:47;;;;;;;3.17;1.50;;;13.50;94.70;;;;;;5018048;28;20417;-82
2023/04/14 11:10:15;;;;;;;2.90;2.13;;;13.50;94.50;;;;;;5036801;28;20438;-81
2023/04/14 11:12:44;;;;;;;3.30;1.53;;;13.60;94.50;;;;;;5018286;28;20817;-81
2023/04/14 11:15:10;;;;;;;2.80;1.80;;;13.60;94.40;;;;;;5026241;28;20595;-81
2023/04/14 11:17:40;;;;;;;3.07;1.93;;;13.60;94.30;;;;;;5018116;28;20921;-81
2023/04/14 11:20:22;;;;;;;3.63;1.80;;;13.70;94.40;;;;;;5018034;28;20435;-81
2023/04/14 11:22:53;;;;;;;2.87;1.80;;;13.70;94.30;;;;;;5026749;28;20485;-81
2023/04/14 11:25:20;;;;;;;4.70;2.00;;;13.70;94.20;;;;;;5017528;28;20459;-81
2023/04/14 11:27:49;;;;;;;2.57;1.70;;;13.80;94.20;;;;;;5026893;28;20429;-81
2023/04/14 11:30:17;;;;;;;2.97;1.77;;;13.80;94.00;;;;;;5001316;28;20955;-82
2023/04/14 11:32:50;;;;;;;4.20;1.67;;;13.90;93.70;;;;;;5017789;28;20437;-81
2023/04/14 11:35:19;;;;;;;3.07;1.30;;;13.90;93.50;;;;;;5034745;28;20431;-81
2023/04/14 11:37:57;;;;;;;2.30;1.33;;;14.00;93.20;;;;;;5034898;28;20469;-81
2023/04/14 11:40:25;;;;;;;5.47;1.60;;;14.00;93.10;;;;;;5033777;28;20828;-81
2023/04/14 11:42:53;;;;;;;4.83;1.50;;;14.00;93.20;;;;;;5017395;28;20427;-80
2023/04/14 11:45:19;;;;;;;3.53;1.80;;;14.00;93.60;;;;;;5017756;28;20470;-81
2023/04/14 11:47:54;;;;;;;2.53;1.70;;;14.10;93.30;;;;;;5017539;28;20772;-81
2023/04/14 11:50:26;;;;;;;2.40;1.50;;;14.10;93.20;;;;;;5017596;28;20431;-81
2023/04/14 11:52:58;;;;;;;3.83;1.60;;;14.10;93.20;;;;;;5017520;28;20772;-81
2023/04/14 11:55:30;;;;;;;4.97;1.80;;;14.20;93.20;;;;;;5014366;28;20487;-82
2023/04/14 11:57:59;;;;;;;4.30;2.17;;;14.20;93.10;;;;;;5026928;28;20416;-81
2023/04/14 12:00:29;;;;;;;4.03;1.57;;;14.30;93.20;;;;;;5017480;28;20887;-81
2023/04/14 12:03:02;;;;;;;2.47;1.80;;;14.30;93.10;;;;;;5017234;28;20420;-81
2023/04/14 12:05:30;;;;;;;2.90;1.60;;;14.30;93.00;;;;;;5034953;28;20789;-80
2023/04/14 12:08:06;;;;;;;2.13;1.43;;;14.30;92.90;;;;;;5034494;28;20731;-82
2023/04/14 12:10:40;;;;;;;3.90;1.60;;;14.40;92.90;;;;;;5017476;28;20440;-81
2023/04/14 12:13:08;;;;;;;2.47;1.60;;;14.40;92.60;;;;;;5034428;28;20805;-81
2023/04/14 12:15:35;;;;;;;4.10;1.90;;;14.50;92.30;;;;;;5033789;28;20454;-80
2023/04/14 12:18:04;;;;;;;5.80;2.23;;;14.50;92.40;;;;;;5011553;28;20438;-81
2023/04/14 12:20:44;;;;;;;2.70;1.27;;;14.50;92.40;;;;;;5029353;28;20459;-81
2023/04/14 12:23:14;;;;;;;6.60;1.50;;;14.50;92.30;;;;;;4997439;28;20497;-81
2023/04/14 12:25:40;;;;;;;2.50;1.47;;;14.60;92.10;;;;;;5024284;28;20777;-82
2023/04/14 12:28:08;;;;;;;4.33;1.57;;;14.60;92.00;;;;;;5016272;28;20525;-82
2023/04/14 12:30:53;;;;;;;2.33;1.50;;;14.60;91.70;;;;;;5016971;28;20914;-81
2023/04/14 12:33:22;;;;;;;3.17;1.80;;;14.60;91.50;;;;;;5014116;28;20461;-81
2023/04/14 12:35:52;;;;;;;2.63;1.80;;;14.70;91.30;;;;;;5044327;28;20470;-81
2023/04/14 12:38:18;;;;;;;1.77;1.23;;;14.70;91.10;;;;;;5033942;28;20423;-81
2023/04/14 12:40:49;;;;;;;1.83;1.30;;;14.80;91.20;;;;;;4981027;28;20424;-81
2023/04/14 12:43:25;;;;;;;2.20;1.40;;;14.80;91.20;;;;;;5010526;28;20940;-81
2023/04/14 12:45:54;;;;;;;3.50;2.03;;;14.80;91.00;;;;;;4998221;28;20499;-81
2023/04/14 12:48:21;;;;;;;3.53;1.80;;;14.80;90.90;;;;;;5016684;28;20432;-81
2023/04/14 12:50:47;;;;;;;2.30;1.40;;;14.90;90.80;;;;;;5034090;28;20480;-82
2023/04/14 12:53:27;;;;;;;1.70;1.40;;;14.90;90.70;;;;;;5000612;28;20425;-80
2023/04/14 12:56:12;;;;;;;3.90;1.50;;;14.90;90.60;;;;;;5040922;28;20438;-81
2023/04/14 12:58:45;;;;;;;2.80;1.80;;;14.90;90.70;;;;;;5033931;28;20883;-81
2023/04/14 13:01:12;;;;;;;5.53;2.20;;;15.00;90.30;;;;;;5033886;28;20797;-86
2023/04/14 13:03:49;;;;;;;2.73;1.63;;;15.00;75.30;;;;;;5016351;28;20467;-86
2023/04/14 13:06:20;;;;;;;3.13;1.80;;;15.10;69.90;;;;;;5000519;28;20440;-86
2023/04/14 13:08:50;;;;;;;11.40;2.80;;;15.30;68.40;;;;;;5000171;28;20438;-86